createdAt,value
2019-01-13T00:00:44.973Z,998.03
2019-01-13T00:01:44.963Z,998.01
2019-01-13T00:02:44.963Z,998.01
2019-01-13T00:03:44.936Z,997.95
2019-01-13T00:04:44.923Z,998.01
2019-01-13T00:05:44.910Z,998.04
2019-01-13T00:06:44.909Z,998.00
2019-01-13T00:07:44.898Z,998.03
2019-01-13T00:08:44.895Z,998.01
2019-01-13T00:09:44.925Z,998.06
2019-01-13T00:10:44.860Z,997.95
2019-01-13T00:11:44.917Z,997.98
2019-01-13T00:12:44.864Z,997.94
2019-01-13T00:13:44.949Z,997.96
2019-01-13T00:14:44.865Z,997.99
2019-01-13T00:15:44.819Z,997.90
2019-01-13T00:16:44.809Z,997.94
2019-01-13T00:17:44.792Z,997.97
2019-01-13T00:18:44.898Z,997.96
2019-01-13T00:19:44.944Z,997.92
2019-01-13T00:20:44.748Z,997.97
2019-01-13T00:21:44.733Z,997.94
2019-01-13T00:22:44.722Z,998.00
2019-01-13T00:23:44.711Z,997.92
2019-01-13T00:24:44.719Z,997.96
2019-01-13T00:25:44.695Z,997.90
2019-01-13T00:26:44.676Z,997.95
2019-01-13T00:27:44.664Z,997.97
2019-01-13T00:28:44.656Z,997.98
2019-01-13T00:29:44.685Z,997.98
2019-01-13T00:30:44.638Z,998.01
2019-01-13T00:31:44.632Z,997.97
2019-01-13T00:32:44.608Z,997.96
2019-01-13T00:33:44.614Z,998.01
2019-01-13T00:34:44.589Z,998.05
2019-01-13T00:35:44.601Z,997.98
2019-01-13T00:36:44.571Z,998.00
2019-01-13T00:37:44.552Z,998.01
2019-01-13T00:38:44.545Z,998.02
2019-01-13T00:39:44.536Z,998.03
2019-01-13T00:40:44.526Z,998.04
2019-01-13T00:41:44.819Z,998.03
2019-01-13T00:42:44.502Z,998.17
2019-01-13T00:43:44.544Z,998.12
2019-01-13T00:44:44.481Z,998.08
2019-01-13T00:45:44.464Z,998.07
2019-01-13T00:46:44.461Z,998.11
2019-01-13T00:47:44.465Z,998.13
2019-01-13T00:48:44.447Z,998.05
2019-01-13T00:49:44.419Z,998.07
2019-01-13T00:50:44.414Z,998.14
2019-01-13T00:51:44.413Z,998.08
2019-01-13T00:52:44.387Z,998.13
2019-01-13T00:53:44.380Z,998.12
2019-01-13T00:54:44.410Z,998.17
2019-01-13T00:55:44.356Z,998.09
2019-01-13T00:56:44.341Z,998.14
2019-01-13T00:57:44.340Z,998.16
2019-01-13T00:58:44.321Z,998.08
2019-01-13T00:59:44.307Z,998.05
2019-01-13T01:00:44.342Z,998.09
2019-01-13T01:01:44.286Z,998.05
2019-01-13T01:02:44.279Z,998.08
2019-01-13T01:03:44.349Z,998.07
2019-01-13T01:04:44.252Z,998.02
2019-01-13T01:05:44.246Z,997.98
2019-01-13T01:06:44.307Z,998.02
2019-01-13T01:07:44.223Z,998.03
2019-01-13T01:08:44.214Z,998.00
2019-01-13T01:09:44.204Z,997.96
2019-01-13T01:10:44.184Z,997.92
2019-01-13T01:11:44.197Z,997.96
2019-01-13T01:12:44.167Z,997.92
2019-01-13T01:13:44.156Z,997.94
2019-01-13T01:14:44.143Z,997.90
2019-01-13T01:15:44.138Z,997.95
2019-01-13T01:16:44.329Z,998.00
2019-01-13T01:17:44.115Z,998.02
2019-01-13T01:18:44.101Z,998.02
2019-01-13T01:19:44.092Z,998.00
2019-01-13T01:20:44.071Z,998.05
2019-01-13T01:21:44.061Z,998.03
2019-01-13T01:22:44.069Z,998.05
2019-01-13T01:23:44.079Z,998.07
2019-01-13T01:24:44.029Z,997.99
2019-01-13T01:25:44.022Z,998.02
2019-01-13T01:26:44.792Z,998.04
2019-01-13T01:27:43.993Z,998.03
2019-01-13T01:28:44.479Z,998.02
2019-01-13T01:29:44.005Z,998.00
2019-01-13T01:30:43.967Z,998.03
2019-01-13T01:31:43.978Z,998.05
2019-01-13T01:32:43.944Z,998.01
2019-01-13T01:33:43.951Z,998.01
2019-01-13T01:34:43.924Z,998.00
2019-01-13T01:35:43.914Z,998.01
2019-01-13T01:36:43.892Z,998.12
2019-01-13T01:37:43.887Z,998.12
2019-01-13T01:38:43.883Z,998.08
2019-01-13T01:39:43.866Z,998.11
2019-01-13T01:40:43.868Z,998.03
2019-01-13T01:41:43.838Z,998.14
2019-01-13T01:42:43.827Z,998.12
2019-01-13T01:43:43.832Z,998.21
2019-01-13T01:44:43.811Z,998.16
2019-01-13T01:45:43.794Z,998.16
2019-01-13T01:46:43.780Z,998.16
2019-01-13T01:47:43.775Z,998.20
2019-01-13T01:48:43.814Z,998.13
2019-01-13T01:49:43.757Z,998.20
2019-01-13T01:50:43.743Z,998.24
2019-01-13T01:51:43.730Z,998.18
2019-01-13T01:52:43.719Z,998.20
2019-01-13T01:53:43.708Z,998.25
2019-01-13T01:54:43.719Z,998.34
2019-01-13T01:55:43.685Z,998.22
2019-01-13T01:56:43.674Z,998.23
2019-01-13T01:57:43.666Z,998.27
2019-01-13T01:58:43.647Z,998.20
2019-01-13T01:59:43.685Z,998.19
2019-01-13T02:00:43.630Z,998.14
2019-01-13T02:01:43.621Z,998.15
2019-01-13T02:02:43.603Z,998.21
2019-01-13T02:03:43.620Z,998.22
2019-01-13T02:04:43.583Z,998.17
2019-01-13T02:05:43.612Z,998.14
2019-01-13T02:06:43.555Z,998.20
2019-01-13T02:07:43.546Z,998.19
2019-01-13T02:08:43.535Z,998.15
2019-01-13T02:09:43.540Z,998.13
2019-01-13T02:10:43.512Z,998.14
2019-01-13T02:11:44.298Z,998.17
2019-01-13T02:12:43.530Z,998.22
2019-01-13T02:13:44.265Z,998.22
2019-01-13T02:14:43.478Z,998.23
2019-01-13T02:15:43.466Z,998.20
2019-01-13T02:16:43.447Z,998.19
2019-01-13T02:17:43.434Z,998.14
2019-01-13T02:18:43.455Z,998.12
2019-01-13T02:19:43.413Z,998.17
2019-01-13T02:20:43.432Z,998.16
2019-01-13T02:21:43.396Z,998.17
2019-01-13T02:22:43.378Z,998.17
2019-01-13T02:23:43.381Z,998.18
2019-01-13T02:24:43.371Z,998.22
2019-01-13T02:25:43.349Z,998.25
2019-01-13T02:26:43.340Z,998.24
2019-01-13T02:27:43.329Z,998.22
2019-01-13T02:28:43.348Z,998.25
2019-01-13T02:29:43.304Z,998.18
2019-01-13T02:30:49.095Z,998.26
2019-01-13T02:31:44.277Z,998.21
2019-01-13T02:32:43.284Z,998.23
2019-01-13T02:33:43.259Z,998.24
2019-01-13T02:34:43.280Z,998.27
2019-01-13T02:35:43.237Z,998.17
2019-01-13T02:36:43.229Z,998.21
2019-01-13T02:37:43.214Z,998.20
2019-01-13T02:38:43.200Z,998.23
2019-01-13T02:39:43.187Z,998.20
2019-01-13T02:40:43.215Z,998.18
2019-01-13T02:41:43.166Z,998.16
2019-01-13T02:42:43.154Z,998.16
2019-01-13T02:43:43.151Z,998.16
2019-01-13T02:44:43.180Z,998.16
2019-01-13T02:45:43.125Z,998.10
2019-01-13T02:46:43.111Z,998.15
2019-01-13T02:47:43.114Z,998.12
2019-01-13T02:48:43.093Z,998.15
2019-01-13T02:49:43.087Z,998.16
2019-01-13T02:50:43.331Z,998.14
2019-01-13T02:51:43.054Z,998.14
2019-01-13T02:52:43.064Z,998.15
2019-01-13T02:53:43.034Z,998.14
2019-01-13T02:54:43.032Z,998.19
2019-01-13T02:55:43.056Z,998.18
2019-01-13T02:56:44.026Z,998.15
2019-01-13T02:57:42.997Z,998.10
2019-01-13T02:58:42.982Z,998.13
2019-01-13T02:59:42.968Z,998.20
2019-01-13T03:00:42.962Z,998.12
2019-01-13T03:01:42.981Z,998.13
2019-01-13T03:02:42.940Z,998.14
2019-01-13T03:03:42.922Z,998.08
2019-01-13T03:04:42.921Z,998.12
2019-01-13T03:05:42.906Z,998.11
2019-01-13T03:06:42.925Z,998.11
2019-01-13T03:07:42.876Z,998.06
2019-01-13T03:08:42.869Z,998.07
2019-01-13T03:09:42.858Z,998.07
2019-01-13T03:10:42.847Z,998.02
2019-01-13T03:11:43.807Z,998.02
2019-01-13T03:12:42.839Z,998.03
2019-01-13T03:13:42.817Z,998.04
2019-01-13T03:14:42.804Z,998.02
2019-01-13T03:15:42.786Z,998.11
2019-01-13T03:16:42.780Z,998.07
2019-01-13T03:17:42.819Z,998.14
2019-01-13T03:18:42.753Z,998.13
2019-01-13T03:19:42.744Z,998.15
2019-01-13T03:20:42.731Z,998.11
2019-01-13T03:21:42.725Z,998.12
2019-01-13T03:22:42.712Z,998.09
2019-01-13T03:23:42.718Z,998.09
2019-01-13T03:24:42.692Z,998.01
2019-01-13T03:25:42.681Z,998.02
2019-01-13T03:26:42.671Z,997.98
2019-01-13T03:27:42.660Z,997.97
2019-01-13T03:28:42.681Z,998.03
2019-01-13T03:29:42.634Z,998.00
2019-01-13T03:30:42.619Z,998.01
2019-01-13T03:31:42.617Z,997.99
2019-01-13T03:32:42.602Z,998.01
2019-01-13T03:33:42.619Z,998.03
2019-01-13T03:34:42.579Z,997.99
2019-01-13T03:35:42.562Z,998.04
2019-01-13T03:36:42.556Z,998.02
2019-01-13T03:37:42.549Z,998.06
2019-01-13T03:38:42.558Z,997.99
2019-01-13T03:39:42.522Z,998.01
2019-01-13T03:40:42.538Z,998.04
2019-01-13T03:41:42.522Z,997.98
2019-01-13T03:42:42.499Z,997.99
2019-01-13T03:43:42.484Z,997.99
2019-01-13T03:44:42.493Z,997.97
2019-01-13T03:45:42.458Z,997.96
2019-01-13T03:46:42.460Z,998.01
2019-01-13T03:47:42.508Z,997.96
2019-01-13T03:48:42.425Z,997.95
2019-01-13T03:49:42.418Z,997.89
2019-01-13T03:50:42.398Z,997.92
2019-01-13T03:51:42.394Z,997.87
2019-01-13T03:52:42.378Z,997.91
2019-01-13T03:53:42.367Z,997.93
2019-01-13T03:54:42.368Z,997.91
2019-01-13T03:55:42.371Z,997.91
2019-01-13T03:56:42.338Z,997.84
2019-01-13T03:57:42.326Z,997.86
2019-01-13T03:58:42.368Z,997.91
2019-01-13T03:59:42.306Z,997.87
2019-01-13T04:00:42.325Z,997.84
2019-01-13T04:01:42.276Z,997.82
2019-01-13T04:02:42.286Z,997.86
2019-01-13T04:03:42.260Z,997.88
2019-01-13T04:04:42.257Z,997.94
2019-01-13T04:05:42.246Z,997.94
2019-01-13T04:06:42.221Z,997.99
2019-01-13T04:07:42.215Z,997.92
2019-01-13T04:08:42.210Z,997.88
2019-01-13T04:09:42.196Z,997.90
2019-01-13T04:10:42.181Z,997.91
2019-01-13T04:11:42.185Z,997.86
2019-01-13T04:12:42.158Z,997.88
2019-01-13T04:13:42.142Z,997.82
2019-01-13T04:14:42.130Z,997.80
2019-01-13T04:15:42.118Z,997.80
2019-01-13T04:16:42.145Z,997.80
2019-01-13T04:17:42.100Z,997.82
2019-01-13T04:18:42.102Z,997.78
2019-01-13T04:19:42.074Z,997.76
2019-01-13T04:20:42.067Z,997.75
2019-01-13T04:21:42.092Z,997.75
2019-01-13T04:22:42.050Z,997.75
2019-01-13T04:23:42.035Z,997.69
2019-01-13T04:24:42.018Z,997.70
2019-01-13T04:25:42.017Z,997.70
2019-01-13T04:26:42.006Z,997.63
2019-01-13T04:27:41.998Z,997.64
2019-01-13T04:28:41.998Z,997.61
2019-01-13T04:29:41.962Z,997.70
2019-01-13T04:30:41.957Z,997.65
2019-01-13T04:31:41.945Z,997.67
2019-01-13T04:32:41.934Z,997.64
2019-01-13T04:33:41.957Z,997.66
2019-01-13T04:34:41.929Z,997.62
2019-01-13T04:35:41.913Z,997.62
2019-01-13T04:36:41.889Z,997.60
2019-01-13T04:37:41.906Z,997.60
2019-01-13T04:38:41.871Z,997.58
2019-01-13T04:39:41.866Z,997.55
2019-01-13T04:40:41.845Z,997.56
2019-01-13T04:41:41.840Z,997.52
2019-01-13T04:42:41.823Z,997.49
2019-01-13T04:43:41.897Z,997.51
2019-01-13T04:44:41.798Z,997.52
2019-01-13T04:45:41.916Z,997.50
2019-01-13T04:46:41.774Z,997.50
2019-01-13T04:47:41.762Z,997.52
2019-01-13T04:48:41.765Z,997.46
2019-01-13T04:49:41.779Z,997.44
2019-01-13T04:50:41.750Z,997.50
2019-01-13T04:51:41.724Z,997.47
2019-01-13T04:52:41.710Z,997.52
2019-01-13T04:53:41.702Z,997.46
2019-01-13T04:54:41.684Z,997.45
2019-01-13T04:55:41.679Z,997.52
2019-01-13T04:56:41.692Z,997.49
2019-01-13T04:57:41.655Z,997.48
2019-01-13T04:58:41.640Z,997.49
2019-01-13T04:59:41.627Z,997.44
2019-01-13T05:00:41.617Z,997.43
2019-01-13T05:01:41.631Z,997.44
2019-01-13T05:02:41.631Z,997.49
2019-01-13T05:03:41.593Z,997.47
2019-01-13T05:04:41.576Z,997.47
2019-01-13T05:05:41.560Z,997.47
2019-01-13T05:06:41.550Z,997.51
2019-01-13T05:07:41.577Z,997.43
2019-01-13T05:08:41.526Z,997.47
2019-01-13T05:09:41.521Z,997.45
2019-01-13T05:10:41.511Z,997.45
2019-01-13T05:11:41.494Z,997.45
2019-01-13T05:12:41.521Z,997.48
2019-01-13T05:13:42.336Z,997.47
2019-01-13T05:14:41.460Z,997.45
2019-01-13T05:15:41.504Z,997.44
2019-01-13T05:16:41.496Z,997.43
2019-01-13T05:17:41.437Z,997.42
2019-01-13T05:18:41.420Z,997.40
2019-01-13T05:19:41.412Z,997.48
2019-01-13T05:20:41.397Z,997.37
2019-01-13T05:21:41.388Z,997.44
2019-01-13T05:22:41.398Z,997.39
2019-01-13T05:23:41.391Z,997.41
2019-01-13T05:24:41.358Z,997.37
2019-01-13T05:25:41.336Z,997.42
2019-01-13T05:26:41.328Z,997.46
2019-01-13T05:27:41.320Z,997.46
2019-01-13T05:28:41.353Z,997.43
2019-01-13T05:29:41.296Z,997.43
2019-01-13T05:30:41.303Z,997.40
2019-01-13T05:31:42.180Z,997.43
2019-01-13T05:32:41.262Z,997.37
2019-01-13T05:33:41.254Z,997.29
2019-01-13T05:34:41.267Z,997.29
2019-01-13T05:35:41.235Z,997.34
2019-01-13T05:36:41.229Z,997.28
2019-01-13T05:37:41.211Z,997.41
2019-01-13T05:38:41.192Z,997.32
2019-01-13T05:39:41.179Z,997.30
2019-01-13T05:40:41.184Z,997.29
2019-01-13T05:41:41.178Z,997.28
2019-01-13T05:42:41.147Z,997.25
2019-01-13T05:43:41.146Z,997.27
2019-01-13T05:44:41.126Z,997.26
2019-01-13T05:45:41.123Z,997.22
2019-01-13T05:46:41.105Z,997.22
2019-01-13T05:47:41.120Z,997.18
2019-01-13T05:48:41.079Z,997.23
2019-01-13T05:49:41.072Z,997.22
2019-01-13T05:50:41.076Z,997.17
2019-01-13T05:51:41.063Z,997.14
2019-01-13T05:52:41.039Z,997.09
2019-01-13T05:53:41.039Z,997.12
2019-01-13T05:54:41.016Z,997.10
2019-01-13T05:55:41.007Z,996.97
2019-01-13T05:56:40.996Z,997.01
2019-01-13T05:57:40.984Z,996.97
2019-01-13T05:58:41.392Z,996.90
2019-01-13T05:59:40.962Z,996.91
2019-01-13T06:00:40.953Z,996.89
2019-01-13T06:01:40.991Z,996.89
2019-01-13T06:02:40.935Z,996.86
2019-01-13T06:03:40.911Z,996.84
2019-01-13T06:04:40.930Z,996.85
2019-01-13T06:05:40.898Z,996.82
2019-01-13T06:06:40.877Z,996.81
2019-01-13T06:07:40.870Z,996.80
2019-01-13T06:08:40.861Z,996.80
2019-01-13T06:09:40.857Z,996.83
2019-01-13T06:10:40.841Z,996.77
2019-01-13T06:11:40.847Z,996.81
2019-01-13T06:12:40.815Z,996.83
2019-01-13T06:13:40.851Z,996.85
2019-01-13T06:14:40.793Z,996.79
2019-01-13T06:15:40.779Z,996.76
2019-01-13T06:16:40.771Z,996.74
2019-01-13T06:17:40.761Z,996.81
2019-01-13T06:18:40.745Z,996.77
2019-01-13T06:19:40.788Z,996.75
2019-01-13T06:20:40.730Z,996.75
2019-01-13T06:21:40.712Z,996.67
2019-01-13T06:22:40.709Z,996.76
2019-01-13T06:23:40.694Z,996.68
2019-01-13T06:24:40.677Z,996.69
2019-01-13T06:25:40.687Z,996.67
2019-01-13T06:26:40.667Z,996.69
2019-01-13T06:27:40.647Z,996.68
2019-01-13T06:28:40.659Z,996.74
2019-01-13T06:29:40.624Z,996.67
2019-01-13T06:30:40.638Z,996.69
2019-01-13T06:31:40.604Z,996.67
2019-01-13T06:32:40.594Z,996.69
2019-01-13T06:33:40.575Z,996.72
2019-01-13T06:34:40.563Z,996.74
2019-01-13T06:35:40.595Z,996.74
2019-01-13T06:36:40.551Z,996.71
2019-01-13T06:37:40.542Z,996.68
2019-01-13T06:38:40.526Z,996.71
2019-01-13T06:39:40.519Z,996.67
2019-01-13T06:40:40.502Z,996.71
2019-01-13T06:41:40.510Z,996.66
2019-01-13T06:42:40.478Z,996.68
2019-01-13T06:43:40.463Z,996.68
2019-01-13T06:44:40.457Z,996.70
2019-01-13T06:45:40.479Z,996.67
2019-01-13T06:46:40.430Z,996.67
2019-01-13T06:47:40.425Z,996.68
2019-01-13T06:48:40.437Z,996.67
2019-01-13T06:49:40.399Z,996.66
2019-01-13T06:50:40.396Z,996.68
2019-01-13T06:51:40.374Z,996.67
2019-01-13T06:52:40.378Z,996.68
2019-01-13T06:53:40.355Z,996.70
2019-01-13T06:54:40.340Z,996.74
2019-01-13T06:55:40.334Z,996.75
2019-01-13T06:56:40.320Z,996.79
2019-01-13T06:57:40.353Z,996.80
2019-01-13T06:58:40.310Z,996.80
2019-01-13T06:59:40.285Z,996.85
2019-01-13T07:00:40.278Z,996.89
2019-01-13T07:01:40.263Z,996.77
2019-01-13T07:02:40.261Z,996.80
2019-01-13T07:03:40.271Z,996.83
2019-01-13T07:04:40.229Z,996.79
2019-01-13T07:05:40.225Z,996.69
2019-01-13T07:06:40.222Z,996.69
2019-01-13T07:07:40.197Z,996.68
2019-01-13T07:08:40.223Z,996.70
2019-01-13T07:09:40.175Z,996.66
2019-01-13T07:10:40.167Z,996.63
2019-01-13T07:11:40.156Z,996.68
2019-01-13T07:12:40.144Z,996.58
2019-01-13T07:13:40.135Z,996.60
2019-01-13T07:14:40.151Z,996.59
2019-01-13T07:15:40.107Z,996.54
2019-01-13T07:16:40.101Z,996.59
2019-01-13T07:17:40.092Z,996.64
2019-01-13T07:18:40.082Z,996.64
2019-01-13T07:19:40.091Z,996.52
2019-01-13T07:20:40.081Z,996.47
2019-01-13T07:21:40.049Z,996.38
2019-01-13T07:22:40.033Z,996.42
2019-01-13T07:23:40.019Z,996.46
2019-01-13T07:24:40.007Z,996.43
2019-01-13T07:25:40.018Z,996.37
2019-01-13T07:26:39.990Z,996.38
2019-01-13T07:27:39.985Z,996.32
2019-01-13T07:28:39.966Z,996.34
2019-01-13T07:29:40.009Z,996.35
2019-01-13T07:30:39.943Z,996.35
2019-01-13T07:31:39.934Z,996.36
2019-01-13T07:32:40.850Z,996.30
2019-01-13T07:33:39.967Z,996.25
2019-01-13T07:34:39.899Z,996.20
2019-01-13T07:35:39.926Z,996.27
2019-01-13T07:36:39.883Z,996.21
2019-01-13T07:37:39.897Z,996.25
2019-01-13T07:38:39.873Z,996.29
2019-01-13T07:39:39.840Z,996.21
2019-01-13T07:40:39.829Z,996.23
2019-01-13T07:41:39.839Z,996.24
2019-01-13T07:42:39.829Z,996.17
2019-01-13T07:43:39.810Z,996.18
2019-01-13T07:44:39.789Z,996.18
2019-01-13T07:45:39.810Z,996.18
2019-01-13T07:46:39.768Z,996.18
2019-01-13T07:47:39.753Z,996.09
2019-01-13T07:48:39.753Z,996.09
2019-01-13T07:49:39.735Z,996.07
2019-01-13T07:50:39.720Z,996.02
2019-01-13T07:51:39.712Z,996.07
2019-01-13T07:52:39.697Z,996.00
2019-01-13T07:53:39.714Z,995.98
2019-01-13T07:54:39.681Z,996.01
2019-01-13T07:55:39.689Z,995.99
2019-01-13T07:56:39.669Z,995.99
2019-01-13T07:57:39.646Z,996.00
2019-01-13T07:58:39.633Z,996.02
2019-01-13T07:59:39.621Z,996.00
2019-01-13T08:00:39.636Z,995.93
2019-01-13T08:01:39.623Z,995.90
2019-01-13T08:02:39.590Z,995.91
2019-01-13T08:03:39.579Z,995.89
2019-01-13T08:04:40.196Z,995.93
2019-01-13T08:05:39.603Z,995.91
2019-01-13T08:06:39.565Z,995.85
2019-01-13T08:07:39.530Z,995.85
2019-01-13T08:08:39.520Z,995.85
2019-01-13T08:09:39.512Z,995.87
2019-01-13T08:10:39.507Z,995.82
2019-01-13T08:11:39.543Z,995.90
2019-01-13T08:12:39.489Z,995.84
2019-01-13T08:13:39.469Z,995.85
2019-01-13T08:14:39.458Z,995.80
2019-01-13T08:15:39.455Z,995.78
2019-01-13T08:16:39.444Z,995.83
2019-01-13T08:17:39.448Z,995.85
2019-01-13T08:18:39.467Z,995.79
2019-01-13T08:19:39.399Z,995.72
2019-01-13T08:20:39.387Z,995.74
2019-01-13T08:21:39.420Z,995.73
2019-01-13T08:22:39.369Z,995.69
2019-01-13T08:23:39.363Z,995.69
2019-01-13T08:24:39.366Z,995.69
2019-01-13T08:25:39.346Z,995.68
2019-01-13T08:26:39.325Z,995.68
2019-01-13T08:27:39.313Z,995.68
2019-01-13T08:28:39.304Z,995.59
2019-01-13T08:29:39.296Z,995.59
2019-01-13T08:30:39.301Z,995.62
2019-01-13T08:31:39.266Z,995.58
2019-01-13T08:32:39.254Z,995.55
2019-01-13T08:33:39.251Z,995.56
2019-01-13T08:34:39.238Z,995.53
2019-01-13T08:35:39.233Z,995.51
2019-01-13T08:36:39.246Z,995.48
2019-01-13T08:37:39.203Z,995.44
2019-01-13T08:38:39.192Z,995.42
2019-01-13T08:39:39.188Z,995.48
2019-01-13T08:40:39.171Z,995.40
2019-01-13T08:41:39.180Z,995.44
2019-01-13T08:42:39.145Z,995.37
2019-01-13T08:43:39.133Z,995.40
2019-01-13T08:44:39.126Z,995.38
2019-01-13T08:45:39.113Z,995.38
2019-01-13T08:46:39.181Z,995.30
2019-01-13T08:47:39.103Z,995.32
2019-01-13T08:48:39.079Z,995.32
2019-01-13T08:49:39.083Z,995.32
2019-01-13T08:50:39.065Z,995.31
2019-01-13T08:51:39.051Z,995.26
2019-01-13T08:52:39.063Z,995.26
2019-01-13T08:53:39.028Z,995.15
2019-01-13T08:54:39.011Z,995.16
2019-01-13T08:55:39.040Z,995.13
2019-01-13T08:56:39.059Z,995.07
2019-01-13T08:57:38.979Z,995.05
2019-01-13T08:58:38.975Z,995.09
2019-01-13T08:59:38.962Z,995.00
2019-01-13T09:00:38.951Z,995.01
2019-01-13T09:01:38.936Z,994.93
2019-01-13T09:02:39.394Z,994.97
2019-01-13T09:03:38.918Z,994.87
2019-01-13T09:04:38.919Z,994.80
2019-01-13T09:05:38.898Z,994.81
2019-01-13T09:06:38.884Z,994.76
2019-01-13T09:07:38.908Z,994.76
2019-01-13T09:08:38.876Z,994.73
2019-01-13T09:09:38.858Z,994.73
2019-01-13T09:10:38.859Z,994.72
2019-01-13T09:11:38.832Z,994.78
2019-01-13T09:12:46.376Z,994.78
2019-01-13T09:13:38.830Z,994.76
2019-01-13T09:14:38.799Z,994.76
2019-01-13T09:15:38.789Z,994.72
2019-01-13T09:16:38.799Z,994.73
2019-01-13T09:17:38.764Z,994.74
2019-01-13T09:18:38.747Z,994.74
2019-01-13T09:19:38.740Z,994.75
2019-01-13T09:20:38.735Z,994.69
2019-01-13T09:21:38.772Z,994.70
2019-01-13T09:22:38.710Z,994.66
2019-01-13T09:23:38.702Z,994.62
2019-01-13T09:24:38.683Z,994.58
2019-01-13T09:25:38.675Z,994.52
2019-01-13T09:26:38.903Z,994.51
2019-01-13T09:27:38.802Z,994.50
2019-01-13T09:28:38.760Z,994.50
2019-01-13T09:29:42.417Z,994.40
2019-01-13T09:30:38.622Z,994.39
2019-01-13T09:31:38.626Z,994.38
2019-01-13T09:32:39.665Z,994.44
2019-01-13T09:33:38.632Z,994.42
2019-01-13T09:34:38.629Z,994.37
2019-01-13T09:35:38.613Z,994.42
2019-01-13T09:36:39.350Z,994.37
2019-01-13T09:37:38.543Z,994.28
2019-01-13T09:38:38.529Z,994.22
2019-01-13T09:39:38.519Z,994.23
2019-01-13T09:40:38.521Z,994.20
2019-01-13T09:41:38.495Z,994.24
2019-01-13T09:42:38.485Z,994.14
2019-01-13T09:43:38.474Z,994.14
2019-01-13T09:44:38.469Z,994.12
2019-01-13T09:45:38.455Z,994.08
2019-01-13T09:46:38.488Z,994.01
2019-01-13T09:47:38.436Z,993.99
2019-01-13T09:48:38.423Z,993.92
2019-01-13T09:49:38.407Z,993.94
2019-01-13T09:50:38.403Z,993.93
2019-01-13T09:51:38.392Z,993.89
2019-01-13T09:52:38.411Z,993.85
2019-01-13T09:53:38.365Z,993.82
2019-01-13T09:54:38.361Z,993.79
2019-01-13T09:55:38.348Z,993.79
2019-01-13T09:56:38.342Z,993.72
2019-01-13T09:57:38.321Z,993.76
2019-01-13T09:58:38.340Z,993.76
2019-01-13T09:59:38.297Z,993.69
2019-01-13T10:00:38.298Z,993.70
2019-01-13T10:01:38.275Z,993.65
2019-01-13T10:02:38.299Z,993.62
2019-01-13T10:03:38.259Z,993.64
2019-01-13T10:04:38.254Z,993.65
2019-01-13T10:05:38.233Z,993.56
2019-01-13T10:06:38.236Z,993.60
2019-01-13T10:07:38.216Z,993.38
2019-01-13T10:08:38.214Z,993.41
2019-01-13T10:09:38.189Z,993.36
2019-01-13T10:10:38.180Z,993.39
2019-01-13T10:11:38.174Z,993.36
2019-01-13T10:12:38.173Z,993.33
2019-01-13T10:13:38.411Z,993.29
2019-01-13T10:14:38.145Z,993.24
2019-01-13T10:15:38.123Z,993.26
2019-01-13T10:16:38.116Z,993.23
2019-01-13T10:17:38.111Z,993.21
2019-01-13T10:18:38.090Z,993.13
2019-01-13T10:19:38.115Z,993.08
2019-01-13T10:20:38.126Z,993.05
2019-01-13T10:21:38.058Z,993.03
2019-01-13T10:22:38.050Z,993.00
2019-01-13T10:23:38.036Z,992.90
2019-01-13T10:24:38.027Z,992.91
2019-01-13T10:25:38.028Z,992.89
2019-01-13T10:26:38.001Z,992.85
2019-01-13T10:27:37.995Z,992.83
2019-01-13T10:28:37.980Z,992.83
2019-01-13T10:29:37.972Z,992.78
2019-01-13T10:30:37.965Z,992.73
2019-01-13T10:31:37.947Z,992.73
2019-01-13T10:32:37.935Z,992.71
2019-01-13T10:33:37.930Z,992.69
2019-01-13T10:34:37.921Z,992.67
2019-01-13T10:35:37.949Z,992.62
2019-01-13T10:36:37.900Z,992.57
2019-01-13T10:37:37.886Z,992.55
2019-01-13T10:38:37.877Z,992.58
2019-01-13T10:39:37.865Z,992.50
2019-01-13T10:40:37.852Z,992.44
2019-01-13T10:41:37.860Z,992.44
2019-01-13T10:42:37.831Z,992.40
2019-01-13T10:43:37.817Z,992.35
2019-01-13T10:44:37.808Z,992.27
2019-01-13T10:45:37.791Z,992.31
2019-01-13T10:46:37.845Z,992.23
2019-01-13T10:47:37.774Z,992.21
2019-01-13T10:48:37.763Z,992.18
2019-01-13T10:49:37.753Z,992.16
2019-01-13T10:50:37.741Z,992.09
2019-01-13T10:51:37.727Z,992.08
2019-01-13T10:52:37.728Z,992.01
2019-01-13T10:53:37.704Z,991.98
2019-01-13T10:54:37.693Z,991.97
2019-01-13T10:55:37.681Z,991.91
2019-01-13T10:56:37.676Z,991.94
2019-01-13T10:57:37.674Z,991.86
2019-01-13T10:58:37.647Z,991.84
2019-01-13T10:59:37.638Z,991.85
2019-01-13T11:00:37.631Z,991.84
2019-01-13T11:01:37.635Z,991.72
2019-01-13T11:02:37.619Z,991.70
2019-01-13T11:03:37.592Z,991.65
2019-01-13T11:04:37.584Z,991.58
2019-01-13T11:05:37.591Z,991.60
2019-01-13T11:06:37.559Z,991.55
2019-01-13T11:07:37.693Z,991.54
2019-01-13T11:08:37.540Z,991.51
2019-01-13T11:09:37.528Z,991.46
2019-01-13T11:10:37.532Z,991.55
2019-01-13T11:11:37.512Z,991.47
2019-01-13T11:12:37.500Z,991.48
2019-01-13T11:13:38.838Z,991.40
2019-01-13T11:14:37.471Z,991.36
2019-01-13T11:15:37.472Z,991.38
2019-01-13T11:16:37.458Z,991.31
2019-01-13T11:17:37.472Z,991.25
2019-01-13T11:18:37.451Z,991.24
2019-01-13T11:19:37.424Z,991.23
2019-01-13T11:20:37.413Z,991.21
2019-01-13T11:21:37.398Z,991.16
2019-01-13T11:22:37.387Z,991.13
2019-01-13T11:23:37.394Z,991.05
2019-01-13T11:24:37.364Z,991.04
2019-01-13T11:25:37.361Z,991.02
2019-01-13T11:26:37.348Z,990.96
2019-01-13T11:27:37.334Z,990.98
2019-01-13T11:28:37.369Z,990.93
2019-01-13T11:29:37.312Z,990.91
2019-01-13T11:30:37.299Z,990.89
2019-01-13T11:31:37.292Z,990.87
2019-01-13T11:32:37.310Z,990.81
2019-01-13T11:33:37.272Z,990.81
2019-01-13T11:34:37.265Z,990.79
2019-01-13T11:35:37.241Z,990.73
2019-01-13T11:36:37.231Z,990.68
2019-01-13T11:37:37.230Z,990.61
2019-01-13T11:38:37.207Z,990.56
2019-01-13T11:39:37.208Z,990.54
2019-01-13T11:40:37.188Z,990.49
2019-01-13T11:41:37.179Z,990.50
2019-01-13T11:42:37.165Z,990.45
2019-01-13T11:43:37.159Z,990.44
2019-01-13T11:44:37.183Z,990.38
2019-01-13T11:45:37.131Z,990.43
2019-01-13T11:46:37.127Z,990.32
2019-01-13T11:47:37.115Z,990.25
2019-01-13T11:48:37.105Z,990.27
2019-01-13T11:49:37.113Z,990.25
2019-01-13T11:50:37.090Z,990.27
2019-01-13T11:51:37.068Z,990.25
2019-01-13T11:52:37.058Z,990.20
2019-01-13T11:53:37.043Z,990.16
2019-01-13T11:54:37.036Z,990.14
2019-01-13T11:55:37.079Z,990.13
2019-01-13T11:56:37.008Z,990.12
2019-01-13T11:57:36.998Z,990.10
2019-01-13T11:58:36.996Z,990.03
2019-01-13T11:59:36.975Z,990.00
2019-01-13T12:00:36.970Z,989.92
2019-01-13T12:01:36.969Z,989.88
2019-01-13T12:02:36.943Z,989.82
2019-01-13T12:03:36.945Z,989.87
2019-01-13T12:04:36.922Z,989.74
2019-01-13T12:05:36.914Z,989.68
2019-01-13T12:06:36.966Z,989.69
2019-01-13T12:07:36.890Z,989.65
2019-01-13T12:08:36.904Z,989.63
2019-01-13T12:09:36.871Z,989.62
2019-01-13T12:10:36.854Z,989.58
2019-01-13T12:11:36.865Z,989.60
2019-01-13T12:12:36.847Z,989.55
2019-01-13T12:13:36.822Z,989.52
2019-01-13T12:14:36.850Z,989.49
2019-01-13T12:15:36.808Z,989.42
2019-01-13T12:16:37.746Z,989.44
2019-01-13T12:17:36.787Z,989.42
2019-01-13T12:18:40.536Z,989.34
2019-01-13T12:19:36.759Z,989.32
2019-01-13T12:20:36.747Z,989.30
2019-01-13T12:21:36.741Z,989.33
2019-01-13T12:22:36.774Z,989.26
2019-01-13T12:23:36.717Z,989.27
2019-01-13T12:24:36.710Z,989.28
2019-01-13T12:25:36.699Z,989.24
2019-01-13T12:26:36.678Z,989.17
2019-01-13T12:27:36.665Z,989.13
2019-01-13T12:28:36.669Z,989.15